AirNav   Duncan Aviation - Near you to keep you 
flying
 
 1143 users online  

MY33 Rosacker's Nr 1 Seaplane Base
New Brighton, Minnesota, USA

GOING TO NEW BRIGHTON?


FAA INFORMATION EFFECTIVE 15 JULY 2021

Location

FAA Identifier: MY33
Lat/Long: 45-04-36.8760N 093-12-15.8070W
45-04.614600N 093-12.263450W
45.0769100,-93.2043908
(estimated)
Elevation: 865 ft. / 264 m (estimated)
Variation: 03E (1985)
From city: 1 mile N of NEW BRIGHTON, MN
Time zone: UTC -5 (UTC -6 during Standard Time)
Zip code: 55112

Seaplane Base Operations

Seaplane Base use: Private use, PERSONAL USE.
Activation date: 07/1981
Control tower: no
ARTCC: MINNEAPOLIS CENTER
FSS: PRINCETON FLIGHT SERVICE STATION
Attendance: UNATNDD
Segmented circle: no

Seaplane Base Communications

WX AWOS-3 at ANE (4 nm N): 120.625 (763-780-9025)
WX ASOS at MIC (6 nm W): 125.7 (763-531-2343)
WX ASOS at STP (10 nm SE): 118.35 (651-312-8888)
WX ASOS at MSP (12 nm S): PHONE 612-713-4174
WX AWOS-3 at SGS (15 nm SE): 119.425 (651-457-8120)
WX AWOS-3 at 21D (16 nm E): 120.075 (651-779-5949)
WX ASOS at FCM (18 nm SW): 124.9 (952-941-4156)

Nearby radio navigation aids

VOR radial/distance  VOR name  Freq  Var
GEPr114/8.3GOPHER VORTAC117.3006E
MSPr005/10.9MINNEAPOLIS VOR/DME115.3002E
FCMr033/18.2FLYING CLOUD VOR/DME117.7001E
FGTr352/26.8FARMINGTON VORTAC115.7006E

 
NDB name  Hdg/Dist  Freq  Var  ID
PRINCETON147/33.836803EPNM .--. -. --
RUSH CITY194/38.628202EROS .-. --- ...

Seaplane Base Services

Runway Information

Runway 14W/32W

Dimensions: 3500 x 200 ft. / 1067 x 61 m
Surface: water
RUNWAY 14W  RUNWAY 32W
Traffic pattern: leftleft

Runway 17W/35W

Dimensions: 3500 x 200 ft. / 1067 x 61 m
Surface: water
RUNWAY 17W  RUNWAY 35W
Traffic pattern: leftleft

Seaplane Base Ownership and Management from official FAA records

Ownership: Privately-owned
Owner: HANS D. ROSACKER
1639 14AVE NW
NEW BRIGHTON, MN 55112
Phone 651-633-1751

Additional Remarks

FOR CD CTC MINNEAPOLIS ARTCC AT 651-463-5588.

Instrument Procedures

There are no published instrument procedures at MY33.

Some nearby airports with instrument procedures:

KANE - Anoka County-Blaine Airport (Janes Field) (4 nm N)
KMIC - Crystal Airport (6 nm W)
KSTP - St Paul Downtown Airport Holman Field (10 nm SE)
KMSP - Minneapolis-St Paul International/Wold-Chamberlain Airport (12 nm S)
KSGS - South St Paul Municipal Airport-Richard E Fleming Field (15 nm SE)
21D - Lake Elmo Airport (16 nm E)
KFCM - Flying Cloud Airport (18 nm SW)
 
Loc | Ops | Rwys | IFR | FBO | Links
Com | Nav | Svcs | Stats | Notes
Area around MY33 (Rosacker's Nr 1 Seaplane Base)
 
Road maps at: MapQuest Bing Google
 
Aerial photo
No photo
 
Sectional chart

 
Airport distance calculator
Flying to Rosacker's Nr 1 Seaplane Base? Find the distance to fly.

From to MY33

Sunrise and sunset
Times for 28-Jul-2021
 Local
(UTC-5)
 Zulu
(UTC)
Morning civil twilight05:2010:20
Sunrise05:5410:54
Sunset20:4401:44
Evening civil twilight21:1802:18

Current date and time
Zulu (UTC)  28-Jul-2021 23:09:07
Local (UTC-5)  28-Jul-2021 18:09:07
 
METAR
KANE 
3nm N 
282245Z 21009KT 10SM SCT180 OVC200 32/23 A2984
KMIC 
6nm W 
282253Z 19006KT 10SM CLR 31/24 A2983 RMK AO2 SLP095 T03110239
KSTP 
11nm SE 
282253Z 17009KT 10SM CLR 32/23 A2985 RMK AO2 SLP100 T03170233
KMSP 
12nm S 
282253Z 19010KT 10SM SCT180 OVC250 32/24 A2985 RMK AO2 SLP101 T03170244
KSGS 
14nm S 
282255Z AUTO 19005G08KT 10SM CLR 31/22 A2986 RMK AO2 T03120223
K21D 
16nm E 
282255Z AUTO 18008KT 10SM CLR 30/22 A2987 RMK AO2
KFCM 
18nm SW 
282253Z 19010KT 10SM CLR 31/25 A2984 RMK AO2 SLP096 T03110250
TAF
KMSP 
12nm S 
282051Z 2821/2924 19011G20KT P6SM SCT150 BKN250 FM290000 23011KT P6SM SCT080 BKN120 TEMPO 2900/2904 4SM -SHRA BR BKN050 FM291100 36007KT P6SM SCT150 FM291400 01008KT P6SM FEW200
NOTAMs
Click for the latest NOTAMs
NOTAMs are issued by the DoD/FAA and will open in a separate window not controlled by AirNav.

 

 
 

Would you like to see your business listed on this page?

 If your business provides an interesting product or service to pilots, flight crews, aircraft, or users of the Rosacker's Nr 1 Seaplane Base, you should consider listing it here.  To start the listing process, click on the button below
 
Add a business
 

Other Pages about Rosacker's Nr 1 Seaplane Base

Update a link
 
Copyright © AirNav, LLC. All rights reserved. Privacy Policy  Contact